sensor_id;sensor_type;location;lat;lon;timestamp;pressure;altitude;pressure_sealevel;temperature;humidity
76201;BME280;64981;52.930;9.266;2023-09-08T00:02:06;101724.91;;;20.20;55.15
76201;BME280;64981;52.930;9.266;2023-09-08T00:04:32;101723.28;;;20.26;55.07
76201;BME280;64981;52.930;9.266;2023-09-08T00:06:59;101720.59;;;20.26;55.08
76201;BME280;64981;52.930;9.266;2023-09-08T00:09:24;101714.78;;;20.16;55.73
76201;BME280;64981;52.930;9.266;2023-09-08T00:11:50;101722.59;;;20.11;55.68
76201;BME280;64981;52.930;9.266;2023-09-08T00:14:15;101713.50;;;20.12;55.33
76201;BME280;64981;52.930;9.266;2023-09-08T00:16:41;101710.03;;;20.18;55.29
76201;BME280;64981;52.930;9.266;2023-09-08T00:19:09;101712.31;;;20.14;55.44
76201;BME280;64981;52.930;9.266;2023-09-08T00:21:35;101704.25;;;20.14;55.45
76201;BME280;64981;52.930;9.266;2023-09-08T00:24:01;101706.91;;;20.08;55.73
76201;BME280;64981;52.930;9.266;2023-09-08T00:26:27;101704.00;;;20.03;55.87
76201;BME280;64981;52.930;9.266;2023-09-08T00:28:52;101711.19;;;19.96;55.95
76201;BME280;64981;52.930;9.266;2023-09-08T00:31:18;101709.56;;;20.01;56.07
76201;BME280;64981;52.930;9.266;2023-09-08T00:33:43;101703.16;;;19.96;55.83
76201;BME280;64981;52.930;9.266;2023-09-08T00:36:09;101702.91;;;19.91;55.92
76201;BME280;64981;52.930;9.266;2023-09-08T00:38:35;101705.16;;;19.87;55.93
76201;BME280;64981;52.930;9.266;2023-09-08T00:41:00;101699.84;;;19.94;56.23
76201;BME280;64981;52.930;9.266;2023-09-08T00:43:26;101702.69;;;19.85;56.10
76201;BME280;64981;52.930;9.266;2023-09-08T00:45:54;101704.13;;;19.81;56.36
76201;BME280;64981;52.930;9.266;2023-09-08T00:48:21;101698.53;;;19.76;56.39
76201;BME280;64981;52.930;9.266;2023-09-08T00:50:47;101713.16;;;19.80;56.44
76201;BME280;64981;52.930;9.266;2023-09-08T00:53:13;101709.94;;;19.57;56.71
76201;BME280;64981;52.930;9.266;2023-09-08T00:55:40;101704.22;;;19.60;56.85
76201;BME280;64981;52.930;9.266;2023-09-08T00:58:06;101709.28;;;19.49;56.92
76201;BME280;64981;52.930;9.266;2023-09-08T01:00:31;101698.69;;;19.41;57.52
76201;BME280;64981;52.930;9.266;2023-09-08T01:02:58;101699.38;;;19.21;57.87
76201;BME280;64981;52.930;9.266;2023-09-08T01:05:23;101699.84;;;19.25;58.16
76201;BME280;64981;52.930;9.266;2023-09-08T01:07:51;101698.59;;;19.27;57.74
76201;BME280;64981;52.930;9.266;2023-09-08T01:10:18;101700.09;;;19.37;57.79
76201;BME280;64981;52.930;9.266;2023-09-08T01:12:43;101695.44;;;19.45;57.71
76201;BME280;64981;52.930;9.266;2023-09-08T01:15:09;101695.41;;;19.39;57.92
76201;BME280;64981;52.930;9.266;2023-09-08T01:17:34;101703.09;;;19.48;57.51
76201;BME280;64981;52.930;9.266;2023-09-08T01:20:06;101686.38;;;19.46;57.48
76201;BME280;64981;52.930;9.266;2023-09-08T01:25:21;101694.34;;;19.33;58.31
76201;BME280;64981;52.930;9.266;2023-09-08T01:27:51;101695.59;;;19.37;58.16
76201;BME280;64981;52.930;9.266;2023-09-08T01:30:18;101690.19;;;19.30;58.19
76201;BME280;64981;52.930;9.266;2023-09-08T01:32:45;101687.91;;;19.27;58.62
76201;BME280;64981;52.930;9.266;2023-09-08T01:35:11;101696.94;;;19.20;58.71
76201;BME280;64981;52.930;9.266;2023-09-08T01:37:41;101688.41;;;19.10;58.85
76201;BME280;64981;52.930;9.266;2023-09-08T01:40:08;101693.38;;;19.13;58.67
76201;BME280;64981;52.930;9.266;2023-09-08T01:42:35;101695.22;;;19.12;58.87
76201;BME280;64981;52.930;9.266;2023-09-08T01:45:01;101689.28;;;19.17;58.64
76201;BME280;64981;52.930;9.266;2023-09-08T01:47:29;101686.72;;;19.09;59.14
76201;BME280;64981;52.930;9.266;2023-09-08T01:49:55;101685.66;;;19.03;59.23
76201;BME280;64981;52.930;9.266;2023-09-08T01:52:20;101679.69;;;19.01;60.18
76201;BME280;64981;52.930;9.266;2023-09-08T01:54:46;101672.38;;;18.89;60.05
76201;BME280;64981;52.930;9.266;2023-09-08T01:57:11;101685.13;;;18.87;60.03
76201;BME280;64981;52.930;9.266;2023-09-08T01:59:37;101680.59;;;18.87;60.07
76201;BME280;64981;52.930;9.266;2023-09-08T02:02:03;101676.84;;;18.82;60.47
76201;BME280;64981;52.930;9.266;2023-09-08T02:04:29;101675.44;;;18.86;60.26
76201;BME280;64981;52.930;9.266;2023-09-08T02:06:54;101676.31;;;18.71;60.41
76201;BME280;64981;52.930;9.266;2023-09-08T02:09:20;101671.41;;;18.75;60.52
76201;BME280;64981;52.930;9.266;2023-09-08T02:11:46;101667.38;;;18.64;60.75
76201;BME280;64981;52.930;9.266;2023-09-08T02:14:11;101660.41;;;18.63;60.97
76201;BME280;64981;52.930;9.266;2023-09-08T02:16:37;101671.09;;;18.63;61.22
76201;BME280;64981;52.930;9.266;2023-09-08T02:19:02;101670.34;;;18.69;60.89
76201;BME280;64981;52.930;9.266;2023-09-08T02:21:28;101667.22;;;18.66;60.67
76201;BME280;64981;52.930;9.266;2023-09-08T02:23:54;101679.69;;;18.59;61.15
76201;BME280;64981;52.930;9.266;2023-09-08T02:26:19;101674.03;;;18.47;61.79
76201;BME280;64981;52.930;9.266;2023-09-08T02:28:45;101670.66;;;18.60;61.04
76201;BME280;64981;52.930;9.266;2023-09-08T02:31:10;101667.91;;;18.53;61.08
76201;BME280;64981;52.930;9.266;2023-09-08T02:33:36;101674.09;;;18.54;61.29
76201;BME280;64981;52.930;9.266;2023-09-08T02:36:04;101673.78;;;18.42;61.68
76201;BME280;64981;52.930;9.266;2023-09-08T02:38:32;101668.63;;;18.41;61.62
76201;BME280;64981;52.930;9.266;2023-09-08T02:40:57;101673.19;;;18.47;61.14
76201;BME280;64981;52.930;9.266;2023-09-08T02:43:23;101670.28;;;18.42;61.53
76201;BME280;64981;52.930;9.266;2023-09-08T02:45:49;101669.06;;;18.23;61.69
76201;BME280;64981;52.930;9.266;2023-09-08T02:48:15;101669.06;;;18.23;62.04
76201;BME280;64981;52.930;9.266;2023-09-08T02:50:42;101669.13;;;18.30;61.88
76201;BME280;64981;52.930;9.266;2023-09-08T02:53:08;101665.72;;;18.21;62.59
76201;BME280;64981;52.930;9.266;2023-09-08T02:55:34;101668.41;;;18.21;62.62
76201;BME280;64981;52.930;9.266;2023-09-08T02:57:59;101672.03;;;18.13;62.79
76201;BME280;64981;52.930;9.266;2023-09-08T03:00:25;101666.19;;;18.24;61.98
76201;BME280;64981;52.930;9.266;2023-09-08T03:02:50;101667.91;;;18.32;61.75
76201;BME280;64981;52.930;9.266;2023-09-08T03:05:16;101662.44;;;18.19;62.05
76201;BME280;64981;52.930;9.266;2023-09-08T03:07:42;101658.75;;;18.20;61.90
76201;BME280;64981;52.930;9.266;2023-09-08T03:10:07;101662.94;;;18.29;61.40
76201;BME280;64981;52.930;9.266;2023-09-08T03:12:33;101657.84;;;18.34;61.53
76201;BME280;64981;52.930;9.266;2023-09-08T03:15:01;101670.28;;;18.42;61.29
76201;BME280;64981;52.930;9.266;2023-09-08T03:17:27;101660.66;;;18.47;61.14
76201;BME280;64981;52.930;9.266;2023-09-08T03:19:53;101655.94;;;18.49;60.93
76201;BME280;64981;52.930;9.266;2023-09-08T03:22:18;101658.59;;;18.49;60.96
76201;BME280;64981;52.930;9.266;2023-09-08T03:24:44;101653.56;;;18.40;61.24
76201;BME280;64981;52.930;9.266;2023-09-08T03:27:09;101652.00;;;18.45;61.05
76201;BME280;64981;52.930;9.266;2023-09-08T03:29:35;101648.50;;;18.45;61.12
76201;BME280;64981;52.930;9.266;2023-09-08T03:32:00;101644.09;;;18.37;61.33
76201;BME280;64981;52.930;9.266;2023-09-08T03:34:26;101642.41;;;18.36;61.38
76201;BME280;64981;52.930;9.266;2023-09-08T03:36:53;101636.66;;;18.33;61.54
76201;BME280;64981;52.930;9.266;2023-09-08T03:39:18;101639.97;;;18.35;61.42
76201;BME280;64981;52.930;9.266;2023-09-08T03:41:45;101627.88;;;18.39;61.30
76201;BME280;64981;52.930;9.266;2023-09-08T03:44:11;101628.31;;;18.42;61.72
76201;BME280;64981;52.930;9.266;2023-09-08T03:46:36;101634.69;;;18.41;61.55
76201;BME280;64981;52.930;9.266;2023-09-08T03:49:02;101637.97;;;18.43;61.17
76201;BME280;64981;52.930;9.266;2023-09-08T03:51:28;101642.16;;;18.52;61.01
76201;BME280;64981;52.930;9.266;2023-09-08T03:53:54;101637.59;;;18.46;61.04
76201;BME280;64981;52.930;9.266;2023-09-08T03:56:19;101640.72;;;18.50;61.27
76201;BME280;64981;52.930;9.266;2023-09-08T03:58:46;101642.75;;;18.48;61.42
76201;BME280;64981;52.930;9.266;2023-09-08T04:01:11;101637.66;;;18.32;62.05
76201;BME280;64981;52.930;9.266;2023-09-08T04:03:37;101629.31;;;18.41;61.68
76201;BME280;64981;52.930;9.266;2023-09-08T04:06:02;101626.97;;;18.32;61.67
76201;BME280;64981;52.930;9.266;2023-09-08T04:08:28;101621.94;;;18.22;62.06
76201;BME280;64981;52.930;9.266;2023-09-08T04:10:54;101635.16;;;18.30;62.02
76201;BME280;64981;52.930;9.266;2023-09-08T04:13:19;101632.88;;;18.27;62.18
76201;BME280;64981;52.930;9.266;2023-09-08T04:15:45;101624.47;;;18.30;62.03
76201;BME280;64981;52.930;9.266;2023-09-08T04:18:10;101630.03;;;18.28;61.90
76201;BME280;64981;52.930;9.266;2023-09-08T04:20:36;101628.25;;;18.36;61.74
76201;BME280;64981;52.930;9.266;2023-09-08T04:23:01;101624.69;;;18.28;62.07
76201;BME280;64981;52.930;9.266;2023-09-08T04:25:27;101635.09;;;18.23;62.26
76201;BME280;64981;52.930;9.266;2023-09-08T04:27:53;101629.56;;;18.25;62.03
76201;BME280;64981;52.930;9.266;2023-09-08T04:30:18;101630.19;;;18.27;62.11
76201;BME280;64981;52.930;9.266;2023-09-08T04:32:44;101623.72;;;18.15;62.45
76201;BME280;64981;52.930;9.266;2023-09-08T04:35:10;101625.38;;;18.16;62.16
76201;BME280;64981;52.930;9.266;2023-09-08T04:37:36;101626.75;;;18.12;62.43
76201;BME280;64981;52.930;9.266;2023-09-08T04:40:02;101618.31;;;18.30;62.43
76201;BME280;64981;52.930;9.266;2023-09-08T04:42:28;101622.06;;;18.35;61.87
76201;BME280;64981;52.930;9.266;2023-09-08T04:44:55;101620.84;;;18.38;61.85
76201;BME280;64981;52.930;9.266;2023-09-08T04:47:20;101619.38;;;18.35;61.76
76201;BME280;64981;52.930;9.266;2023-09-08T04:49:46;101617.72;;;18.34;61.84
76201;BME280;64981;52.930;9.266;2023-09-08T04:52:11;101621.41;;;18.33;62.01
76201;BME280;64981;52.930;9.266;2023-09-08T04:54:37;101625.13;;;18.32;61.89
76201;BME280;64981;52.930;9.266;2023-09-08T04:57:03;101620.53;;;18.26;61.88
76201;BME280;64981;52.930;9.266;2023-09-08T04:59:28;101623.00;;;18.27;62.08
76201;BME280;64981;52.930;9.266;2023-09-08T05:01:54;101621.31;;;18.20;62.54
76201;BME280;64981;52.930;9.266;2023-09-08T05:04:20;101617.97;;;18.18;62.60
76201;BME280;64981;52.930;9.266;2023-09-08T05:06:45;101627.41;;;18.14;62.78
76201;BME280;64981;52.930;9.266;2023-09-08T05:09:13;101621.53;;;18.04;63.06
76201;BME280;64981;52.930;9.266;2023-09-08T05:11:38;101614.53;;;18.03;63.09
76201;BME280;64981;52.930;9.266;2023-09-08T05:14:04;101616.00;;;18.05;63.06
76201;BME280;64981;52.930;9.266;2023-09-08T05:16:30;101617.59;;;18.00;63.13
76201;BME280;64981;52.930;9.266;2023-09-08T05:19:10;101610.56;;;17.99;63.23
76201;BME280;64981;52.930;9.266;2023-09-08T05:21:36;101618.09;;;18.10;62.88
76201;BME280;64981;52.930;9.266;2023-09-08T05:24:03;101621.16;;;18.07;63.35
76201;BME280;64981;52.930;9.266;2023-09-08T05:26:28;101615.16;;;18.05;63.22
76201;BME280;64981;52.930;9.266;2023-09-08T05:28:54;101624.66;;;18.07;63.17
76201;BME280;64981;52.930;9.266;2023-09-08T05:31:20;101614.53;;;18.03;63.51
76201;BME280;64981;52.930;9.266;2023-09-08T05:33:46;101619.63;;;17.83;64.11
76201;BME280;64981;52.930;9.266;2023-09-08T05:36:12;101622.22;;;17.76;64.38
76201;BME280;64981;52.930;9.266;2023-09-08T05:38:37;101613.69;;;17.66;64.94
76201;BME280;64981;52.930;9.266;2023-09-08T05:41:03;101621.03;;;17.64;65.08
76201;BME280;64981;52.930;9.266;2023-09-08T05:43:28;101628.41;;;17.62;65.29
76201;BME280;64981;52.930;9.266;2023-09-08T05:45:54;101622.72;;;17.65;65.29
76201;BME280;64981;52.930;9.266;2023-09-08T05:48:19;101615.53;;;17.66;65.53
76201;BME280;64981;52.930;9.266;2023-09-08T05:50:45;101611.56;;;17.62;65.57
76201;BME280;64981;52.930;9.266;2023-09-08T05:53:11;101615.31;;;17.67;65.45
76201;BME280;64981;52.930;9.266;2023-09-08T05:55:36;101615.53;;;17.66;65.81
76201;BME280;64981;52.930;9.266;2023-09-08T05:58:02;101613.69;;;17.66;65.66
76201;BME280;64981;52.930;9.266;2023-09-08T06:00:27;101620.31;;;17.56;65.94
76201;BME280;64981;52.930;9.266;2023-09-08T06:02:53;101616.53;;;17.65;65.84
76201;BME280;64981;52.930;9.266;2023-09-08T06:05:19;101618.91;;;17.74;65.59
76201;BME280;64981;52.930;9.266;2023-09-08T06:07:44;101607.44;;;17.59;65.85
76201;BME280;64981;52.930;9.266;2023-09-08T06:10:10;101613.47;;;17.68;65.95
76201;BME280;64981;52.930;9.266;2023-09-08T06:12:35;101622.50;;;17.82;65.56
76201;BME280;64981;52.930;9.266;2023-09-08T06:15:02;101618.34;;;17.94;65.52
76201;BME280;64981;52.930;9.266;2023-09-08T06:17:28;101610.41;;;18.00;65.00
76201;BME280;64981;52.930;9.266;2023-09-08T06:19:54;101615.16;;;18.05;65.24
76201;BME280;64981;52.930;9.266;2023-09-08T06:22:20;101621.63;;;18.10;65.39
76201;BME280;64981;52.930;9.266;2023-09-08T06:24:45;101624.28;;;18.32;64.48
76201;BME280;64981;52.930;9.266;2023-09-08T06:27:11;101619.91;;;18.45;64.14
76201;BME280;64981;52.930;9.266;2023-09-08T06:29:40;101619.75;;;18.53;63.80
76201;BME280;64981;52.930;9.266;2023-09-08T06:32:09;101606.44;;;18.60;63.68
76201;BME280;64981;52.930;9.266;2023-09-08T06:34:35;101612.22;;;18.63;63.71
76201;BME280;64981;52.930;9.266;2023-09-08T06:37:01;101614.13;;;18.69;63.50
76201;BME280;64981;52.930;9.266;2023-09-08T06:39:28;101618.19;;;18.87;63.04
76201;BME280;64981;52.930;9.266;2023-09-08T06:41:54;101616.28;;;18.80;63.42
76201;BME280;64981;52.930;9.266;2023-09-08T06:44:21;101619.22;;;18.86;63.43
76201;BME280;64981;52.930;9.266;2023-09-08T06:46:46;101615.38;;;18.95;63.38
76201;BME280;64981;52.930;9.266;2023-09-08T06:49:12;101621.25;;;19.11;62.94
76201;BME280;64981;52.930;9.266;2023-09-08T06:51:38;101613.16;;;19.32;62.02
76201;BME280;64981;52.930;9.266;2023-09-08T06:54:04;101621.63;;;19.43;62.02
76201;BME280;64981;52.930;9.266;2023-09-08T06:56:30;101620.94;;;19.68;61.66
76201;BME280;64981;52.930;9.266;2023-09-08T06:58:55;101615.00;;;19.73;61.17
76201;BME280;64981;52.930;9.266;2023-09-08T07:01:24;101617.50;;;19.81;61.20
76201;BME280;64981;52.930;9.266;2023-09-08T07:03:49;101615.84;;;19.86;60.79
76201;BME280;64981;52.930;9.266;2023-09-08T07:06:16;101620.03;;;19.96;60.76
76201;BME280;64981;52.930;9.266;2023-09-08T07:08:41;101620.88;;;20.09;60.59
76201;BME280;64981;52.930;9.266;2023-09-08T07:11:07;101622.75;;;20.22;60.34
76201;BME280;64981;52.930;9.266;2023-09-08T07:13:32;101623.59;;;20.22;59.96
76201;BME280;64981;52.930;9.266;2023-09-08T07:15:58;101621.31;;;20.26;60.23
76201;BME280;64981;52.930;9.266;2023-09-08T07:18:24;101620.91;;;20.29;59.82
76201;BME280;64981;52.930;9.266;2023-09-08T07:20:49;101621.97;;;20.41;59.44
76201;BME280;64981;52.930;9.266;2023-09-08T07:23:17;101618.47;;;20.47;59.88
76201;BME280;64981;52.930;9.266;2023-09-08T07:25:47;101617.22;;;20.50;59.64
76201;BME280;64981;52.930;9.266;2023-09-08T07:28:14;101622.41;;;20.51;59.55
76201;BME280;64981;52.930;9.266;2023-09-08T07:30:39;101619.09;;;20.69;59.34
76201;BME280;64981;52.930;9.266;2023-09-08T07:33:05;101615.16;;;20.71;58.96
76201;BME280;64981;52.930;9.266;2023-09-08T07:35:31;101614.97;;;20.79;58.75
76201;BME280;64981;52.930;9.266;2023-09-08T07:37:57;101622.59;;;20.96;58.28
76201;BME280;64981;52.930;9.266;2023-09-08T07:40:22;101624.88;;;21.05;58.42
76201;BME280;64981;52.930;9.266;2023-09-08T07:42:48;101619.88;;;21.22;57.64
76201;BME280;64981;52.930;9.266;2023-09-08T07:45:14;101616.16;;;21.23;57.60
76201;BME280;64981;52.930;9.266;2023-09-08T07:47:39;101626.66;;;21.37;57.74
76201;BME280;64981;52.930;9.266;2023-09-08T07:50:17;101622.38;;;21.74;56.30
76201;BME280;64981;52.930;9.266;2023-09-08T07:52:44;101613.84;;;21.84;55.98
76201;BME280;64981;52.930;9.266;2023-09-08T07:55:10;101617.75;;;21.88;56.46
76201;BME280;64981;52.930;9.266;2023-09-08T07:57:35;101612.94;;;22.34;54.93
76201;BME280;64981;52.930;9.266;2023-09-08T08:00:01;101605.78;;;22.22;54.94
76201;BME280;64981;52.930;9.266;2023-09-08T08:02:27;101606.09;;;22.07;55.35
76201;BME280;64981;52.930;9.266;2023-09-08T08:04:53;101605.53;;;22.30;54.82
76201;BME280;64981;52.930;9.266;2023-09-08T08:07:18;101611.75;;;22.55;53.86
76201;BME280;64981;52.930;9.266;2023-09-08T08:09:44;101618.47;;;22.46;53.83
76201;BME280;64981;52.930;9.266;2023-09-08T08:12:09;101620.34;;;22.70;53.46
76201;BME280;64981;52.930;9.266;2023-09-08T08:14:35;101613.78;;;22.60;53.12
76201;BME280;64981;52.930;9.266;2023-09-08T08:17:00;101621.59;;;22.92;53.17
76201;BME280;64981;52.930;9.266;2023-09-08T08:19:26;101627.53;;;23.01;52.48
76201;BME280;64981;52.930;9.266;2023-09-08T08:21:53;101623.66;;;22.90;52.81
76201;BME280;64981;52.930;9.266;2023-09-08T08:24:18;101624.53;;;23.09;51.86
76201;BME280;64981;52.930;9.266;2023-09-08T08:26:45;101622.88;;;22.90;52.70
76201;BME280;64981;52.930;9.266;2023-09-08T08:29:10;101619.06;;;22.97;52.84
76201;BME280;64981;52.930;9.266;2023-09-08T08:31:36;101621.22;;;23.32;51.90
76201;BME280;64981;52.930;9.266;2023-09-08T08:34:01;101621.13;;;23.57;51.37
76201;BME280;64981;52.930;9.266;2023-09-08T08:36:27;101623.81;;;23.57;51.79
76201;BME280;64981;52.930;9.266;2023-09-08T08:38:52;101609.59;;;23.31;51.96
76201;BME280;64981;52.930;9.266;2023-09-08T08:41:18;101611.03;;;23.34;52.29
76201;BME280;64981;52.930;9.266;2023-09-08T08:43:44;101611.53;;;23.61;51.85
76201;BME280;64981;52.930;9.266;2023-09-08T08:46:13;101606.88;;;23.68;51.75
76201;BME280;64981;52.930;9.266;2023-09-08T08:48:40;101609.34;;;23.69;51.60
76201;BME280;64981;52.930;9.266;2023-09-08T08:51:08;101602.75;;;23.95;51.16
76201;BME280;64981;52.930;9.266;2023-09-08T08:53:35;101606.16;;;23.90;51.46
76201;BME280;64981;52.930;9.266;2023-09-08T08:56:03;101607.75;;;24.10;51.43
76201;BME280;64981;52.930;9.266;2023-09-08T08:58:29;101606.69;;;23.99;51.16
76201;BME280;64981;52.930;9.266;2023-09-08T09:00:57;101610.31;;;24.46;49.87
76201;BME280;64981;52.930;9.266;2023-09-08T09:03:26;101604.09;;;24.34;49.90
76201;BME280;64981;52.930;9.266;2023-09-08T09:05:54;101612.19;;;24.34;49.98
76201;BME280;64981;52.930;9.266;2023-09-08T09:08:19;101611.03;;;24.53;49.52
76201;BME280;64981;52.930;9.266;2023-09-08T09:10:47;101618.59;;;24.74;49.86
76201;BME280;64981;52.930;9.266;2023-09-08T09:13:12;101615.78;;;24.92;49.45
76201;BME280;64981;52.930;9.266;2023-09-08T09:15:38;101617.78;;;24.85;49.09
76201;BME280;64981;52.930;9.266;2023-09-08T09:18:06;101616.34;;;24.94;48.69
76201;BME280;64981;52.930;9.266;2023-09-08T09:20:32;101616.13;;;25.07;49.28
76201;BME280;64981;52.930;9.266;2023-09-08T09:22:57;101610.69;;;25.19;48.38
76201;BME280;64981;52.930;9.266;2023-09-08T09:25:25;101616.56;;;25.28;48.11
76201;BME280;64981;52.930;9.266;2023-09-08T09:27:52;101612.81;;;25.40;47.97
76201;BME280;64981;52.930;9.266;2023-09-08T09:30:18;101601.47;;;25.55;48.10
76201;BME280;64981;52.930;9.266;2023-09-08T09:32:44;101607.31;;;25.63;48.48
76201;BME280;64981;52.930;9.266;2023-09-08T09:35:10;101607.28;;;25.75;47.98
76201;BME280;64981;52.930;9.266;2023-09-08T09:37:35;101594.53;;;25.87;47.87
76201;BME280;64981;52.930;9.266;2023-09-08T09:40:01;101593.59;;;26.10;47.25
76201;BME280;64981;52.930;9.266;2023-09-08T09:42:31;101602.50;;;26.22;46.86
76201;BME280;64981;52.930;9.266;2023-09-08T09:44:57;101595.09;;;26.51;46.51
76201;BME280;64981;52.930;9.266;2023-09-08T09:47:23;101595.19;;;26.73;45.85
76201;BME280;64981;52.930;9.266;2023-09-08T09:49:49;101593.63;;;26.93;45.17
76201;BME280;64981;52.930;9.266;2023-09-08T09:52:21;101584.03;;;27.07;44.99
76201;BME280;64981;52.930;9.266;2023-09-08T09:54:48;101594.66;;;27.09;44.57
76201;BME280;64981;52.930;9.266;2023-09-08T09:57:16;101599.06;;;26.77;44.91
76201;BME280;64981;52.930;9.266;2023-09-08T09:59:42;101586.53;;;26.92;44.89
76201;BME280;64981;52.930;9.266;2023-09-08T10:02:12;101585.66;;;26.87;45.07
76201;BME280;64981;52.930;9.266;2023-09-08T10:04:42;101573.84;;;26.76;45.97
76201;BME280;64981;52.930;9.266;2023-09-08T10:07:08;101584.59;;;26.88;45.29
76201;BME280;64981;52.930;9.266;2023-09-08T10:09:36;101578.50;;;26.97;44.94
76201;BME280;64981;52.930;9.266;2023-09-08T10:12:04;101577.19;;;26.83;45.54
76201;BME280;64981;52.930;9.266;2023-09-08T10:14:32;101584.31;;;26.89;45.81
76201;BME280;64981;52.930;9.266;2023-09-08T10:17:00;101580.94;;;26.99;45.64
76201;BME280;64981;52.930;9.266;2023-09-08T10:19:27;101585.47;;;26.93;45.83
76201;BME280;64981;52.930;9.266;2023-09-08T10:21:57;101570.72;;;26.84;45.62
76201;BME280;64981;52.930;9.266;2023-09-08T10:24:27;101574.13;;;26.96;45.61
76201;BME280;64981;52.930;9.266;2023-09-08T10:27:00;101574.00;;;27.08;45.40
76201;BME280;64981;52.930;9.266;2023-09-08T10:29:30;101578.22;;;26.99;45.28
76201;BME280;64981;52.930;9.266;2023-09-08T10:31:58;101569.91;;;27.05;45.45
76201;BME280;64981;52.930;9.266;2023-09-08T10:34:26;101563.47;;;27.28;44.91
76201;BME280;64981;52.930;9.266;2023-09-08T10:36:52;101572.44;;;27.12;44.36
76201;BME280;64981;52.930;9.266;2023-09-08T10:39:37;101568.69;;;27.35;44.29
76201;BME280;64981;52.930;9.266;2023-09-08T10:42:20;101564.88;;;27.36;44.42
76201;BME280;64981;52.930;9.266;2023-09-08T10:44:57;101562.56;;;27.44;44.55
76201;BME280;64981;52.930;9.266;2023-09-08T10:47:24;101569.22;;;27.58;44.15
76201;BME280;64981;52.930;9.266;2023-09-08T10:49:51;101557.50;;;27.53;43.43
76201;BME280;64981;52.930;9.266;2023-09-08T10:52:21;101559.72;;;27.12;44.04
76201;BME280;64981;52.930;9.266;2023-09-08T10:54:50;101555.41;;;27.38;44.46
76201;BME280;64981;52.930;9.266;2023-09-08T10:57:18;101549.28;;;27.48;43.23
76201;BME280;64981;52.930;9.266;2023-09-08T10:59:57;101547.31;;;27.65;43.49
76201;BME280;64981;52.930;9.266;2023-09-08T11:02:34;101542.72;;;27.65;43.33
76201;BME280;64981;52.930;9.266;2023-09-08T11:05:01;101550.31;;;27.42;43.00
76201;BME280;64981;52.930;9.266;2023-09-08T11:07:28;101543.44;;;27.56;42.33
76201;BME280;64981;52.930;9.266;2023-09-08T11:09:54;101543.44;;;27.56;42.85
76201;BME280;64981;52.930;9.266;2023-09-08T11:12:19;101537.84;;;27.67;42.34
76201;BME280;64981;52.930;9.266;2023-09-08T11:14:49;101534.84;;;27.42;42.82
76201;BME280;64981;52.930;9.266;2023-09-08T11:17:14;101536.22;;;27.45;42.88
76201;BME280;64981;52.930;9.266;2023-09-08T11:19:46;101536.84;;;27.52;42.66
76201;BME280;64981;52.930;9.266;2023-09-08T11:22:13;101539.34;;;27.80;42.54
76201;BME280;64981;52.930;9.266;2023-09-08T11:24:41;101544.78;;;27.80;42.05
76201;BME280;64981;52.930;9.266;2023-09-08T11:27:07;101544.09;;;27.68;41.05
76201;BME280;64981;52.930;9.266;2023-09-08T11:29:33;101527.44;;;27.81;40.50
76201;BME280;64981;52.930;9.266;2023-09-08T11:31:58;101532.50;;;28.04;40.03
76201;BME280;64981;52.930;9.266;2023-09-08T11:34:24;101540.31;;;27.96;40.59
76201;BME280;64981;52.930;9.266;2023-09-08T11:36:50;101543.31;;;27.94;39.87
76201;BME280;64981;52.930;9.266;2023-09-08T11:39:17;101548.22;;;27.97;40.09
76201;BME280;64981;52.930;9.266;2023-09-08T11:41:42;101550.03;;;28.18;39.96
76201;BME280;64981;52.930;9.266;2023-09-08T11:44:08;101547.22;;;28.40;39.77
76201;BME280;64981;52.930;9.266;2023-09-08T11:46:34;101544.34;;;28.57;38.87
76201;BME280;64981;52.930;9.266;2023-09-08T11:48:59;101541.31;;;28.90;37.84
76201;BME280;64981;52.930;9.266;2023-09-08T11:51:26;101537.13;;;28.72;38.90
76201;BME280;64981;52.930;9.266;2023-09-08T11:53:53;101535.63;;;28.55;39.42
76201;BME280;64981;52.930;9.266;2023-09-08T11:56:19;101531.97;;;28.76;39.38
76201;BME280;64981;52.930;9.266;2023-09-08T11:58:45;101532.66;;;29.03;37.31
76201;BME280;64981;52.930;9.266;2023-09-08T12:01:12;101534.03;;;29.11;37.11
76201;BME280;64981;52.930;9.266;2023-09-08T12:03:51;101538.69;;;29.10;37.03
76201;BME280;64981;52.930;9.266;2023-09-08T12:06:18;101538.22;;;29.34;37.49
76201;BME280;64981;52.930;9.266;2023-09-08T12:08:44;101529.81;;;29.40;36.66
76201;BME280;64981;52.930;9.266;2023-09-08T12:11:11;101533.88;;;29.43;35.55
76201;BME280;64981;52.930;9.266;2023-09-08T12:13:37;101526.91;;;29.67;35.04
76201;BME280;64981;52.930;9.266;2023-09-08T12:16:17;101535.34;;;29.80;34.84
76201;BME280;64981;52.930;9.266;2023-09-08T12:18:43;101533.72;;;29.90;34.74
76201;BME280;64981;52.930;9.266;2023-09-08T12:21:10;101529.09;;;29.90;35.44
76201;BME280;64981;52.930;9.266;2023-09-08T12:23:48;101523.38;;;29.81;35.67
76201;BME280;64981;52.930;9.266;2023-09-08T12:26:14;101526.41;;;30.10;33.74
76201;BME280;64981;52.930;9.266;2023-09-08T12:28:42;101522.25;;;29.67;34.06
76201;BME280;64981;52.930;9.266;2023-09-08T12:31:09;101517.91;;;29.87;34.68
76201;BME280;64981;52.930;9.266;2023-09-08T12:33:35;101518.50;;;30.14;34.89
76201;BME280;64981;52.930;9.266;2023-09-08T12:36:13;101462.91;;;29.90;35.40
76201;BME280;64981;52.930;9.266;2023-09-08T12:38:40;101513.31;;;29.97;35.38
76201;BME280;64981;52.930;9.266;2023-09-08T12:41:06;101507.84;;;29.72;35.88
76201;BME280;64981;52.930;9.266;2023-09-08T12:43:31;101510.56;;;29.77;35.75
76201;BME280;64981;52.930;9.266;2023-09-08T12:45:57;101510.81;;;29.70;34.95
76201;BME280;64981;52.930;9.266;2023-09-08T12:48:23;101501.56;;;29.71;36.24
76201;BME280;64981;52.930;9.266;2023-09-08T12:50:49;101504.56;;;29.75;36.01